sensor_id;sensor_type;location;lat;lon;timestamp;pressure;altitude;pressure_sealevel;temperature;humidity
36964;BME280;22878;48.616;35.326;2023-04-30T00:00:13;100372.27;;;10.34;100.00
36964;BME280;22878;48.616;35.326;2023-04-30T00:02:38;100366.73;;;10.36;100.00
36964;BME280;22878;48.616;35.326;2023-04-30T00:05:04;100357.40;;;10.34;100.00
36964;BME280;22878;48.616;35.326;2023-04-30T00:07:30;100350.77;;;10.34;100.00
36964;BME280;22878;48.616;35.326;2023-04-30T00:09:56;100347.67;;;10.31;100.00
36964;BME280;22878;48.616;35.326;2023-04-30T00:12:22;100341.88;;;10.23;100.00
36964;BME280;22878;48.616;35.326;2023-04-30T00:14:47;100334.95;;;10.20;100.00
36964;BME280;22878;48.616;35.326;2023-04-30T00:17:14;100329.19;;;10.18;100.00
36964;BME280;22878;48.616;35.326;2023-04-30T00:19:40;100327.34;;;10.17;100.00
36964;BME280;22878;48.616;35.326;2023-04-30T00:22:07;100323.58;;;10.17;100.00
36964;BME280;22878;48.616;35.326;2023-04-30T00:24:33;100316.59;;;10.16;100.00
36964;BME280;22878;48.616;35.326;2023-04-30T00:26:58;100308.23;;;10.13;100.00
36964;BME280;22878;48.616;35.326;2023-04-30T00:29:24;100303.30;;;10.08;100.00
36964;BME280;22878;48.616;35.326;2023-04-30T00:31:50;100298.61;;;10.05;100.00
36964;BME280;22878;48.616;35.326;2023-04-30T00:34:15;100293.37;;;9.99;100.00
36964;BME280;22878;48.616;35.326;2023-04-30T00:36:41;100295.29;;;9.96;100.00
36964;BME280;22878;48.616;35.326;2023-04-30T00:39:06;100292.86;;;9.94;100.00
36964;BME280;22878;48.616;35.326;2023-04-30T00:41:33;100291.58;;;9.95;100.00
36964;BME280;22878;48.616;35.326;2023-04-30T00:43:59;100285.10;;;9.93;100.00
36964;BME280;22878;48.616;35.326;2023-04-30T00:46:27;100279.23;;;9.91;100.00
36964;BME280;22878;48.616;35.326;2023-04-30T00:48:52;100275.78;;;9.91;100.00
36964;BME280;22878;48.616;35.326;2023-04-30T00:51:19;100269.98;;;9.93;100.00
36964;BME280;22878;48.616;35.326;2023-04-30T00:53:45;100265.93;;;9.92;100.00
36964;BME280;22878;48.616;35.326;2023-04-30T00:56:12;100265.61;;;9.92;100.00
36964;BME280;22878;48.616;35.326;2023-04-30T00:58:40;100259.36;;;9.92;100.00
36964;BME280;22878;48.616;35.326;2023-04-30T01:01:05;100262.65;;;9.91;100.00
36964;BME280;22878;48.616;35.326;2023-04-30T01:03:31;100261.08;;;9.89;100.00
36964;BME280;22878;48.616;35.326;2023-04-30T01:05:57;100258.48;;;9.86;100.00
36964;BME280;22878;48.616;35.326;2023-04-30T01:08:23;100247.11;;;9.81;100.00
36964;BME280;22878;48.616;35.326;2023-04-30T01:11:07;100247.23;;;9.73;100.00
36964;BME280;22878;48.616;35.326;2023-04-30T01:13:55;100252.09;;;9.77;100.00
36964;BME280;22878;48.616;35.326;2023-04-30T01:16:29;100254.85;;;9.81;100.00
36964;BME280;22878;48.616;35.326;2023-04-30T01:19:04;100254.05;;;9.80;100.00
36964;BME280;22878;48.616;35.326;2023-04-30T01:21:37;100257.27;;;9.80;100.00
36964;BME280;22878;48.616;35.326;2023-04-30T01:24:17;100258.61;;;9.78;100.00
36964;BME280;22878;48.616;35.326;2023-04-30T01:29:23;100259.19;;;9.75;100.00
36964;BME280;22878;48.616;35.326;2023-04-30T01:31:49;100251.91;;;9.72;100.00
36964;BME280;22878;48.616;35.326;2023-04-30T01:34:14;100252.00;;;9.69;100.00
36964;BME280;22878;48.616;35.326;2023-04-30T01:37:07;100256.13;;;9.67;100.00
36964;BME280;22878;48.616;35.326;2023-04-30T01:43:00;100250.55;;;9.70;100.00
36964;BME280;22878;48.616;35.326;2023-04-30T01:48:32;100256.16;;;9.61;100.00
36964;BME280;22878;48.616;35.326;2023-04-30T01:53:42;100243.10;;;9.65;100.00
36964;BME280;22878;48.616;35.326;2023-04-30T01:56:11;100233.42;;;9.66;100.00
36964;BME280;22878;48.616;35.326;2023-04-30T01:58:41;100234.55;;;9.66;100.00
36964;BME280;22878;48.616;35.326;2023-04-30T02:01:07;100239.19;;;9.67;100.00
36964;BME280;22878;48.616;35.326;2023-04-30T02:03:49;100235.70;;;9.70;100.00
36964;BME280;22878;48.616;35.326;2023-04-30T02:06:14;100232.10;;;9.70;100.00
36964;BME280;22878;48.616;35.326;2023-04-30T02:08:40;100227.80;;;9.69;100.00
36964;BME280;22878;48.616;35.326;2023-04-30T02:11:05;100228.30;;;9.66;100.00
36964;BME280;22878;48.616;35.326;2023-04-30T02:13:31;100228.53;;;9.65;100.00
36964;BME280;22878;48.616;35.326;2023-04-30T02:15:56;100227.21;;;9.61;100.00
36964;BME280;22878;48.616;35.326;2023-04-30T02:18:22;100235.54;;;9.60;100.00
36964;BME280;22878;48.616;35.326;2023-04-30T02:20:47;100239.77;;;9.65;100.00
36964;BME280;22878;48.616;35.326;2023-04-30T02:23:14;100239.30;;;9.70;100.00
36964;BME280;22878;48.616;35.326;2023-04-30T02:25:40;100237.86;;;9.73;100.00
36964;BME280;22878;48.616;35.326;2023-04-30T02:28:05;100241.16;;;9.76;100.00
36964;BME280;22878;48.616;35.326;2023-04-30T02:30:31;100240.53;;;9.81;100.00
36964;BME280;22878;48.616;35.326;2023-04-30T02:32:56;100240.49;;;9.85;100.00
36964;BME280;22878;48.616;35.326;2023-04-30T02:35:22;100240.81;;;9.85;100.00
36964;BME280;22878;48.616;35.326;2023-04-30T02:37:47;100242.88;;;9.88;100.00
36964;BME280;22878;48.616;35.326;2023-04-30T02:40:13;100243.95;;;9.91;100.00
36964;BME280;22878;48.616;35.326;2023-04-30T02:42:39;100241.65;;;9.92;100.00
36964;BME280;22878;48.616;35.326;2023-04-30T02:45:05;100240.14;;;9.93;100.00
36964;BME280;22878;48.616;35.326;2023-04-30T02:47:30;100238.53;;;9.92;100.00
36964;BME280;22878;48.616;35.326;2023-04-30T02:49:56;100241.16;;;9.89;100.00
36964;BME280;22878;48.616;35.326;2023-04-30T02:52:21;100240.48;;;9.82;100.00
36964;BME280;22878;48.616;35.326;2023-04-30T02:54:47;100234.29;;;9.82;100.00
36964;BME280;22878;48.616;35.326;2023-04-30T02:57:12;100226.76;;;9.83;100.00
36964;BME280;22878;48.616;35.326;2023-04-30T03:02:22;100221.27;;;9.79;100.00
36964;BME280;22878;48.616;35.326;2023-04-30T03:04:48;100215.66;;;9.78;100.00
36964;BME280;22878;48.616;35.326;2023-04-30T03:07:14;100220.57;;;9.79;100.00
36964;BME280;22878;48.616;35.326;2023-04-30T03:09:40;100225.30;;;9.81;100.00
36964;BME280;22878;48.616;35.326;2023-04-30T03:12:05;100226.86;;;9.81;100.00
36964;BME280;22878;48.616;35.326;2023-04-30T03:14:31;100222.71;;;9.83;100.00
36964;BME280;22878;48.616;35.326;2023-04-30T03:16:56;100224.02;;;9.86;100.00
36964;BME280;22878;48.616;35.326;2023-04-30T03:19:22;100229.15;;;9.88;100.00
36964;BME280;22878;48.616;35.326;2023-04-30T03:21:50;100224.05;;;9.88;100.00
36964;BME280;22878;48.616;35.326;2023-04-30T03:24:17;100215.91;;;9.89;100.00
36964;BME280;22878;48.616;35.326;2023-04-30T03:26:42;100212.79;;;9.89;100.00
36964;BME280;22878;48.616;35.326;2023-04-30T03:29:08;100210.75;;;9.91;100.00
36964;BME280;22878;48.616;35.326;2023-04-30T03:31:33;100206.71;;;9.89;100.00
36964;BME280;22878;48.616;35.326;2023-04-30T03:33:59;100206.42;;;9.87;100.00
36964;BME280;22878;48.616;35.326;2023-04-30T03:36:24;100206.50;;;9.89;100.00
36964;BME280;22878;48.616;35.326;2023-04-30T03:38:51;100203.27;;;9.92;100.00
36964;BME280;22878;48.616;35.326;2023-04-30T03:41:17;100200.54;;;9.98;100.00
36964;BME280;22878;48.616;35.326;2023-04-30T03:43:43;100194.67;;;9.99;100.00
36964;BME280;22878;48.616;35.326;2023-04-30T03:46:08;100194.37;;;10.03;100.00
36964;BME280;22878;48.616;35.326;2023-04-30T03:48:34;100200.19;;;10.09;100.00
36964;BME280;22878;48.616;35.326;2023-04-30T03:50:59;100204.94;;;10.15;100.00
36964;BME280;22878;48.616;35.326;2023-04-30T03:53:25;100205.33;;;10.18;100.00
36964;BME280;22878;48.616;35.326;2023-04-30T03:55:52;100205.94;;;10.25;100.00
36964;BME280;22878;48.616;35.326;2023-04-30T03:58:18;100206.67;;;10.30;100.00
36964;BME280;22878;48.616;35.326;2023-04-30T04:00:45;100203.16;;;10.32;100.00
36964;BME280;22878;48.616;35.326;2023-04-30T04:03:13;100200.36;;;10.35;100.00
36964;BME280;22878;48.616;35.326;2023-04-30T04:05:39;100199.25;;;10.34;100.00
36964;BME280;22878;48.616;35.326;2023-04-30T04:08:04;100195.09;;;10.33;100.00
36964;BME280;22878;48.616;35.326;2023-04-30T04:10:31;100189.15;;;10.31;100.00
36964;BME280;22878;48.616;35.326;2023-04-30T04:12:56;100182.80;;;10.33;100.00
36964;BME280;22878;48.616;35.326;2023-04-30T04:15:22;100180.45;;;10.35;100.00
36964;BME280;22878;48.616;35.326;2023-04-30T04:17:47;100183.56;;;10.39;100.00
36964;BME280;22878;48.616;35.326;2023-04-30T04:20:13;100178.29;;;10.41;100.00
36964;BME280;22878;48.616;35.326;2023-04-30T04:22:39;100180.55;;;10.48;100.00
36964;BME280;22878;48.616;35.326;2023-04-30T04:25:05;100177.00;;;10.51;100.00
36964;BME280;22878;48.616;35.326;2023-04-30T04:27:31;100175.31;;;10.53;100.00
36964;BME280;22878;48.616;35.326;2023-04-30T04:29:57;100170.48;;;10.56;100.00
36964;BME280;22878;48.616;35.326;2023-04-30T04:32:23;100172.70;;;10.61;100.00
36964;BME280;22878;48.616;35.326;2023-04-30T04:34:49;100174.84;;;10.62;100.00
36964;BME280;22878;48.616;35.326;2023-04-30T04:37:14;100171.23;;;10.65;100.00
36964;BME280;22878;48.616;35.326;2023-04-30T04:39:41;100173.49;;;10.68;100.00
36964;BME280;22878;48.616;35.326;2023-04-30T04:42:07;100177.05;;;10.68;100.00
36964;BME280;22878;48.616;35.326;2023-04-30T04:44:32;100179.30;;;10.70;100.00
36964;BME280;22878;48.616;35.326;2023-04-30T04:46:58;100182.65;;;10.71;100.00
36964;BME280;22878;48.616;35.326;2023-04-30T04:49:23;100185.61;;;10.72;100.00
36964;BME280;22878;48.616;35.326;2023-04-30T04:51:49;100178.27;;;10.71;100.00
36964;BME280;22878;48.616;35.326;2023-04-30T04:54:15;100182.80;;;10.75;100.00
36964;BME280;22878;48.616;35.326;2023-04-30T04:56:41;100179.84;;;10.81;100.00
36964;BME280;22878;48.616;35.326;2023-04-30T04:59:06;100182.10;;;10.84;100.00
36964;BME280;22878;48.616;35.326;2023-04-30T05:01:32;100181.34;;;10.83;100.00
36964;BME280;22878;48.616;35.326;2023-04-30T05:03:57;100181.02;;;10.82;100.00
36964;BME280;22878;48.616;35.326;2023-04-30T05:06:23;100181.02;;;10.83;100.00
36964;BME280;22878;48.616;35.326;2023-04-30T05:08:48;100178.38;;;10.86;100.00
36964;BME280;22878;48.616;35.326;2023-04-30T05:11:14;100180.85;;;10.85;100.00
36964;BME280;22878;48.616;35.326;2023-04-30T05:13:40;100177.46;;;10.84;100.00
36964;BME280;22878;48.616;35.326;2023-04-30T05:16:06;100185.70;;;10.90;100.00
36964;BME280;22878;48.616;35.326;2023-04-30T05:18:31;100188.66;;;10.91;100.00
36964;BME280;22878;48.616;35.326;2023-04-30T05:20:57;100190.34;;;10.87;100.00
36964;BME280;22878;48.616;35.326;2023-04-30T05:23:23;100190.40;;;10.80;100.00
36964;BME280;22878;48.616;35.326;2023-04-30T05:25:51;100193.47;;;10.82;100.00
36964;BME280;22878;48.616;35.326;2023-04-30T05:28:17;100196.16;;;10.88;100.00
36964;BME280;22878;48.616;35.326;2023-04-30T05:30:43;100196.45;;;10.87;100.00
36964;BME280;22878;48.616;35.326;2023-04-30T05:33:08;100192.77;;;10.87;100.00
36964;BME280;22878;48.616;35.326;2023-04-30T05:35:33;100192.02;;;10.89;100.00
36964;BME280;22878;48.616;35.326;2023-04-30T05:38:01;100189.95;;;10.94;100.00
36964;BME280;22878;48.616;35.326;2023-04-30T05:40:27;100191.31;;;10.95;100.00
36964;BME280;22878;48.616;35.326;2023-04-30T05:42:53;100189.45;;;11.02;100.00
36964;BME280;22878;48.616;35.326;2023-04-30T05:45:19;100189.91;;;11.15;100.00
36964;BME280;22878;48.616;35.326;2023-04-30T05:47:44;100192.42;;;11.24;100.00
36964;BME280;22878;48.616;35.326;2023-04-30T05:50:10;100192.80;;;11.30;100.00
36964;BME280;22878;48.616;35.326;2023-04-30T05:52:35;100186.73;;;11.33;100.00
36964;BME280;22878;48.616;35.326;2023-04-30T05:55:01;100180.92;;;11.43;100.00
36964;BME280;22878;48.616;35.326;2023-04-30T05:57:27;100177.86;;;11.56;100.00
36964;BME280;22878;48.616;35.326;2023-04-30T05:59:53;100177.88;;;11.65;100.00
36964;BME280;22878;48.616;35.326;2023-04-30T06:02:19;100177.52;;;11.74;100.00
36964;BME280;22878;48.616;35.326;2023-04-30T06:04:44;100185.14;;;11.80;100.00
36964;BME280;22878;48.616;35.326;2023-04-30T06:07:10;100178.22;;;11.84;100.00
36964;BME280;22878;48.616;35.326;2023-04-30T06:09:35;100175.66;;;11.90;100.00
36964;BME280;22878;48.616;35.326;2023-04-30T06:12:01;100175.39;;;11.91;100.00
36964;BME280;22878;48.616;35.326;2023-04-30T06:14:28;100174.95;;;11.94;100.00
36964;BME280;22878;48.616;35.326;2023-04-30T06:16:53;100168.30;;;11.94;100.00
36964;BME280;22878;48.616;35.326;2023-04-30T06:19:19;100168.44;;;11.88;100.00
36964;BME280;22878;48.616;35.326;2023-04-30T06:21:45;100168.40;;;11.82;100.00
36964;BME280;22878;48.616;35.326;2023-04-30T06:24:10;100166.63;;;11.78;100.00
36964;BME280;22878;48.616;35.326;2023-04-30T06:26:36;100163.17;;;11.76;100.00
36964;BME280;22878;48.616;35.326;2023-04-30T06:29:01;100162.57;;;11.83;100.00
36964;BME280;22878;48.616;35.326;2023-04-30T06:31:27;100161.80;;;11.88;100.00
36964;BME280;22878;48.616;35.326;2023-04-30T06:33:53;100163.45;;;11.93;100.00
36964;BME280;22878;48.616;35.326;2023-04-30T06:36:18;100169.02;;;11.99;100.00
36964;BME280;22878;48.616;35.326;2023-04-30T06:38:47;100164.48;;;12.03;100.00
36964;BME280;22878;48.616;35.326;2023-04-30T06:41:31;100167.25;;;12.08;100.00
36964;BME280;22878;48.616;35.326;2023-04-30T06:43:56;100168.75;;;12.09;100.00
36964;BME280;22878;48.616;35.326;2023-04-30T06:46:22;100173.57;;;12.15;100.00
36964;BME280;22878;48.616;35.326;2023-04-30T06:48:47;100171.42;;;12.13;100.00
36964;BME280;22878;48.616;35.326;2023-04-30T06:51:13;100168.46;;;12.12;100.00
36964;BME280;22878;48.616;35.326;2023-04-30T06:53:38;100167.19;;;12.08;100.00
36964;BME280;22878;48.616;35.326;2023-04-30T06:56:04;100169.31;;;12.06;100.00
36964;BME280;22878;48.616;35.326;2023-04-30T06:58:30;100168.55;;;12.08;100.00
36964;BME280;22878;48.616;35.326;2023-04-30T07:00:56;100166.42;;;12.16;100.00
36964;BME280;22878;48.616;35.326;2023-04-30T07:03:22;100166.48;;;12.19;100.00
36964;BME280;22878;48.616;35.326;2023-04-30T07:05:48;100166.44;;;12.24;100.00
36964;BME280;22878;48.616;35.326;2023-04-30T07:08:13;100162.51;;;12.28;100.00
36964;BME280;22878;48.616;35.326;2023-04-30T07:10:39;100157.71;;;12.26;100.00
36964;BME280;22878;48.616;35.326;2023-04-30T07:13:05;100157.10;;;12.29;100.00
36964;BME280;22878;48.616;35.326;2023-04-30T07:15:32;100159.94;;;12.25;100.00
36964;BME280;22878;48.616;35.326;2023-04-30T07:17:58;100160.23;;;12.30;100.00
36964;BME280;22878;48.616;35.326;2023-04-30T07:20:23;100164.73;;;12.35;100.00
36964;BME280;22878;48.616;35.326;2023-04-30T07:22:49;100165.08;;;12.33;100.00
36964;BME280;22878;48.616;35.326;2023-04-30T07:25:14;100168.19;;;12.28;100.00
36964;BME280;22878;48.616;35.326;2023-04-30T07:27:40;100167.92;;;12.28;100.00
36964;BME280;22878;48.616;35.326;2023-04-30T07:30:06;100159.37;;;12.29;100.00
36964;BME280;22878;48.616;35.326;2023-04-30T07:32:34;100152.67;;;12.36;100.00
36964;BME280;22878;48.616;35.326;2023-04-30T07:35:00;100148.88;;;12.49;100.00
36964;BME280;22878;48.616;35.326;2023-04-30T07:37:26;100142.88;;;12.64;100.00
36964;BME280;22878;48.616;35.326;2023-04-30T07:39:51;100144.52;;;12.65;100.00
36964;BME280;22878;48.616;35.326;2023-04-30T07:42:19;100144.90;;;12.66;100.00
36964;BME280;22878;48.616;35.326;2023-04-30T07:44:44;100146.24;;;12.73;100.00
36964;BME280;22878;48.616;35.326;2023-04-30T07:47:10;100150.98;;;12.86;100.00
36964;BME280;22878;48.616;35.326;2023-04-30T07:49:36;100151.98;;;12.89;100.00
36964;BME280;22878;48.616;35.326;2023-04-30T07:52:01;100154.80;;;12.99;100.00
36964;BME280;22878;48.616;35.326;2023-04-30T07:54:27;100158.23;;;13.06;100.00
36964;BME280;22878;48.616;35.326;2023-04-30T07:56:53;100154.58;;;13.09;100.00
36964;BME280;22878;48.616;35.326;2023-04-30T07:59:18;100153.20;;;13.01;100.00
36964;BME280;22878;48.616;35.326;2023-04-30T08:01:46;100155.09;;;13.03;100.00
36964;BME280;22878;48.616;35.326;2023-04-30T08:04:11;100156.52;;;13.05;100.00
36964;BME280;22878;48.616;35.326;2023-04-30T08:06:37;100155.44;;;13.27;100.00
36964;BME280;22878;48.616;35.326;2023-04-30T08:09:02;100150.41;;;13.40;100.00
36964;BME280;22878;48.616;35.326;2023-04-30T08:11:28;100151.80;;;13.47;100.00
36964;BME280;22878;48.616;35.326;2023-04-30T08:13:54;100151.11;;;13.58;100.00
36964;BME280;22878;48.616;35.326;2023-04-30T08:16:20;100151.39;;;13.73;100.00
36964;BME280;22878;48.616;35.326;2023-04-30T08:18:45;100156.17;;;13.80;100.00
36964;BME280;22878;48.616;35.326;2023-04-30T08:21:13;100160.61;;;13.81;100.00
36964;BME280;22878;48.616;35.326;2023-04-30T08:23:39;100158.58;;;13.84;100.00
36964;BME280;22878;48.616;35.326;2023-04-30T08:26:04;100151.21;;;13.87;100.00
36964;BME280;22878;48.616;35.326;2023-04-30T08:28:30;100148.11;;;13.91;100.00
36964;BME280;22878;48.616;35.326;2023-04-30T08:30:55;100148.48;;;13.87;100.00
36964;BME280;22878;48.616;35.326;2023-04-30T08:33:21;100147.71;;;13.89;100.00
36964;BME280;22878;48.616;35.326;2023-04-30T08:35:47;100150.71;;;13.92;100.00
36964;BME280;22878;48.616;35.326;2023-04-30T08:38:12;100148.88;;;13.95;100.00
36964;BME280;22878;48.616;35.326;2023-04-30T08:40:38;100148.48;;;14.00;100.00
36964;BME280;22878;48.616;35.326;2023-04-30T08:43:07;100147.48;;;14.09;100.00
36964;BME280;22878;48.616;35.326;2023-04-30T08:45:33;100147.26;;;14.24;100.00
36964;BME280;22878;48.616;35.326;2023-04-30T08:48:00;100149.10;;;14.35;100.00
36964;BME280;22878;48.616;35.326;2023-04-30T08:50:26;100144.44;;;14.47;100.00
36964;BME280;22878;48.616;35.326;2023-04-30T08:52:52;100151.34;;;14.57;100.00
36964;BME280;22878;48.616;35.326;2023-04-30T08:55:18;100156.63;;;14.72;100.00
36964;BME280;22878;48.616;35.326;2023-04-30T08:57:43;100160.64;;;14.75;100.00
36964;BME280;22878;48.616;35.326;2023-04-30T09:00:09;100156.61;;;14.76;100.00
36964;BME280;22878;48.616;35.326;2023-04-30T09:02:39;100160.90;;;14.82;100.00
36964;BME280;22878;48.616;35.326;2023-04-30T09:05:10;100167.51;;;14.91;100.00
36964;BME280;22878;48.616;35.326;2023-04-30T09:07:39;100171.73;;;14.95;100.00
36964;BME280;22878;48.616;35.326;2023-04-30T09:10:22;100169.97;;;14.96;100.00
36964;BME280;22878;48.616;35.326;2023-04-30T09:13:00;100170.58;;;14.93;100.00
36964;BME280;22878;48.616;35.326;2023-04-30T09:15:26;100168.98;;;14.82;100.00
36964;BME280;22878;48.616;35.326;2023-04-30T09:18:24;100167.27;;;14.78;100.00
36964;BME280;22878;48.616;35.326;2023-04-30T09:20:58;100182.40;;;14.65;100.00
36964;BME280;22878;48.616;35.326;2023-04-30T09:23:28;100190.02;;;14.68;100.00
36964;BME280;22878;48.616;35.326;2023-04-30T09:25:55;100187.52;;;14.81;100.00
36964;BME280;22878;48.616;35.326;2023-04-30T09:28:23;100192.96;;;14.79;100.00
36964;BME280;22878;48.616;35.326;2023-04-30T09:30:51;100190.61;;;14.74;100.00
36964;BME280;22878;48.616;35.326;2023-04-30T09:33:17;100194.23;;;14.70;100.00
36964;BME280;22878;48.616;35.326;2023-04-30T09:35:43;100197.87;;;14.71;100.00
36964;BME280;22878;48.616;35.326;2023-04-30T09:40:50;100204.75;;;14.81;100.00
36964;BME280;22878;48.616;35.326;2023-04-30T09:43:16;100201.98;;;14.91;100.00
36964;BME280;22878;48.616;35.326;2023-04-30T09:45:42;100202.91;;;14.93;100.00
36964;BME280;22878;48.616;35.326;2023-04-30T09:48:17;100202.23;;;14.83;100.00
36964;BME280;22878;48.616;35.326;2023-04-30T09:50:43;100205.18;;;14.82;100.00
36964;BME280;22878;48.616;35.326;2023-04-30T09:53:11;100204.55;;;14.90;100.00
36964;BME280;22878;48.616;35.326;2023-04-30T09:55:49;100207.20;;;14.90;100.00
36964;BME280;22878;48.616;35.326;2023-04-30T09:58:16;100208.90;;;14.95;100.00
36964;BME280;22878;48.616;35.326;2023-04-30T10:00:44;100214.02;;;15.01;100.00
36964;BME280;22878;48.616;35.326;2023-04-30T10:03:13;100216.45;;;15.04;100.00
36964;BME280;22878;48.616;35.326;2023-04-30T10:05:41;100217.13;;;15.03;100.00
36964;BME280;22878;48.616;35.326;2023-04-30T10:08:24;100219.65;;;14.90;100.00
36964;BME280;22878;48.616;35.326;2023-04-30T10:11:01;100218.67;;;14.82;100.00
36964;BME280;22878;48.616;35.326;2023-04-30T10:13:32;100213.73;;;14.85;100.00
36964;BME280;22878;48.616;35.326;2023-04-30T10:16:05;100219.89;;;14.87;100.00
36964;BME280;22878;48.616;35.326;2023-04-30T10:18:34;100218.38;;;14.90;100.00
36964;BME280;22878;48.616;35.326;2023-04-30T10:21:06;100214.14;;;14.93;100.00
36964;BME280;22878;48.616;35.326;2023-04-30T10:23:39;100211.49;;;15.00;100.00
36964;BME280;22878;48.616;35.326;2023-04-30T10:26:09;100216.20;;;14.97;100.00
36964;BME280;22878;48.616;35.326;2023-04-30T10:28:35;100216.11;;;14.99;100.00
36964;BME280;22878;48.616;35.326;2023-04-30T10:31:01;100218.21;;;14.90;100.00
36964;BME280;22878;48.616;35.326;2023-04-30T10:36:36;100224.05;;;15.08;100.00
36964;BME280;22878;48.616;35.326;2023-04-30T10:39:03;100223.66;;;15.23;100.00
36964;BME280;22878;48.616;35.326;2023-04-30T10:41:30;100221.77;;;15.29;100.00
36964;BME280;22878;48.616;35.326;2023-04-30T10:43:56;100224.23;;;15.30;100.00
36964;BME280;22878;48.616;35.326;2023-04-30T10:46:25;100225.27;;;15.29;100.00
36964;BME280;22878;48.616;35.326;2023-04-30T10:48:53;100220.14;;;15.22;100.00
36964;BME280;22878;48.616;35.326;2023-04-30T12:25:27;100229.65;;;15.82;100.00
36964;BME280;22878;48.616;35.326;2023-04-30T12:27:53;100227.23;;;15.61;100.00
36964;BME280;22878;48.616;35.326;2023-04-30T12:30:24;100232.34;;;15.47;100.00
36964;BME280;22878;48.616;35.326;2023-04-30T13:16:54;100260.65;;;14.66;100.00
36964;BME280;22878;48.616;35.326;2023-04-30T13:19:20;100263.25;;;14.71;100.00
36964;BME280;22878;48.616;35.326;2023-04-30T13:21:45;100265.88;;;14.73;100.00
36964;BME280;22878;48.616;35.326;2023-04-30T13:27:50;100270.77;;;14.72;100.00
36964;BME280;22878;48.616;35.326;2023-04-30T13:30:16;100272.10;;;14.56;100.00
